Stunt Ranch Reserve, Santa Monica Mtns, California Weather observations

Data are for 10 minute period ending at time listed.
 Day   Time   Solar   Ave.   Ave.  Ave.  Vector  Max.   Baro.   Total    
  of    of     Rad.   Air    Rel.  Wind   Wind   Wind  Press.  Precip.   
Year   Day            Temp.  Hum.  Speed  Dir.   Gust                    
2014   (PST)  Kw/m2    F      %     mph   deg.    mph    mb.     in.     
-------------------------------------------------------------------------
 205   11:10   0.97  101.2    16    4.1   295     8.1   965.1    0.00 
 205   11:20   0.97  102.3    16    4.3   292     8.8   965.1    0.00 
 205   11:30   0.98  102.5    16    3.6   292     8.3   964.8    0.00 
 205   11:40   0.98  103.4    15    3.8   291     8.4   964.8    0.00 
 205   11:50   0.98  104.4    14    3.6   295     8.8   964.8    0.00 
 205   12:00   0.99  104.8    14    3.9   293     9.6   964.8    0.00 
 205   12:10   0.99  104.4    15    3.5   296     8.1   964.8    0.00 
 205   12:20   0.99  104.8    14    2.9   298     8.3   964.4    0.00 
 205   12:30   0.98  104.3    14    2.9   303     7.3   964.4    0.00 
 205   12:40   0.98  104.4    15    4.2   312     9.1   964.4    0.00 
 205   12:50   0.97  104.5    16    3.8   305     9.3   964.4    0.00 
 205   13:00   0.93  105.2    16    3.0   300     8.8   964.1    0.00 
 205   13:10   0.95  105.9    16    3.2   302     7.7   964.1    0.00 
 205   13:20   0.94  105.9    16    3.1   301     7.5   964.1    0.00 
 205   13:30   0.93  106.2    16    3.2   306     7.8   964.1    0.00 
 205   13:40   0.91  105.6    17    3.3   300     8.9   963.8    0.00 
 205   13:50   0.90  105.3    17    3.2   298     9.6   963.8    0.00 
 205   14:00   0.88  104.6    17    3.7   289    11.0   963.8    0.00 
 205   14:10   0.85  104.1    18    3.6   289     8.8   963.4    0.00 
 205   14:20   0.83  103.6    18    4.3   299     8.7   963.4    0.00 
 205   14:30   0.81  102.8    19    4.0   294     8.4   963.4    0.00 
 205   14:40   0.79  103.7    19    4.7   277    10.4   963.1    0.00 
 205   14:50   0.76  103.6    20    4.2   284     9.3   963.1    0.00 
 205   15:00   0.74  104.0    20    5.1   284    11.5   963.1    0.00 
 205   15:10   0.71  103.7    20    4.9   283    12.5   962.8    0.00 
 205   15:20   0.68  103.9    20    4.2   290    10.8   962.8    0.00 
 205   15:30   0.65  104.3    19    4.1   290    10.2   962.8    0.00 
 205   15:40   0.62  104.1    19    3.7   286     9.4   962.8    0.00 
 205   15:50   0.59  104.5    19    4.2   285     9.9   962.8    0.00 
 205   16:00   0.55  103.1    20    4.8   282    11.4   962.4    0.00 
 205   16:10   0.52  103.3    19    3.8   297     8.9   962.4    0.00 
 205   16:20   0.49  103.9    18    3.5   294     9.0   962.4    0.00 
 205   16:30   0.46  103.7    17    3.1   301     8.6   962.4    0.00 
 205   16:40   0.42  103.5    16    2.6   299     7.2   962.4    0.00 
 205   16:50   0.39  102.7    16    3.5   294    12.1   962.4    0.00 
 205   17:00   0.35  101.5    18    3.2   298     9.8   962.4    0.00 
 205   17:10   0.32  101.6    19    2.5   299     6.9   962.4    0.00 
 205   17:20   0.28  101.4    20    2.6   291     7.3   962.4    0.00 
 205   17:30   0.25  100.9    20    3.2   289    10.5   962.4    0.00 
 205   17:40   0.22   98.7    21    2.3   296     8.3   962.4    0.00 
 205   17:50   0.18   96.1    22    2.6   308     6.9   962.4    0.00 
 205   18:00   0.15   94.4    23    2.4   310     6.5   962.8    0.00 
 205   18:10   0.09   92.4    25    1.4   313     6.9   962.8    0.00 
 205   18:20   0.03   90.7    27    2.1   307     5.5   962.4    0.00 
 205   18:30   0.02   89.5    28    1.6   302     6.4   962.4    0.00 
 205   18:40   0.01   87.9    30    1.8   300     6.6   962.4    0.00 
 205   18:50   0.01   87.3    31    0.7   294     3.1   962.4    0.00 
 205   19:00   0.01   85.9    33    1.6   272     5.3   962.4    0.00 
 205   19:10   0.00   84.7    34    2.1   246     4.0   962.4    0.00 
 205   19:20   0.00   84.0    36    2.6   231     4.0   962.4    0.00 
 205   19:30   0.00   83.1    36    2.1   223     3.5   962.4    0.00 
 205   19:40   0.00   82.4    37    2.3   250     3.9   962.4    0.00 
 205   19:50   0.00   82.0    38    2.3   244     3.9   962.4    0.00 
 205   20:00   0.00   81.2    38    2.6   251     3.7   962.4    0.00 
 205   20:10   0.00   80.6    40    2.1   247     2.9   962.8    0.00 
 205   20:20   0.00   80.5    40    1.3   247     3.1   962.8    0.00 
 205   20:30   0.00   79.8    40    0.3   219     1.0   963.1    0.00 
 205   20:40   0.00   79.3    40    0.7   242     1.9   963.1    0.00 
 205   20:50   0.00   79.9    40    0.7   278     1.3   963.1    0.00 
 205   21:00   0.00   79.6    41    0.1   300     0.6   963.1    0.00 
 205   21:10   0.00   79.6    41    0.3   304     1.0   963.1    0.00 
 205   21:20   0.00   79.2    42    0.0   284     0.4   963.4    0.00 
 205   21:30   0.00   79.4    41    0.5   130     1.5   963.4    0.00 
 205   21:40   0.00   79.4    42    0.2   250     1.2   963.4    0.00 
 205   21:50   0.00   79.4    43    0.7   289     1.1   963.4    0.00 
 205   22:00   0.00   78.6    42    1.7   272     3.1   963.4    0.00 
 205   22:10   0.00   77.4    42    0.7   130     2.1   963.4    0.00 
 205   22:20   0.00   77.3    43    0.4   152     1.4   963.8    0.00 
 205   22:30   0.00   77.5    44    0.0     0     0.0   963.8    0.00 
 205   22:40   0.00   77.7    43    0.5   240     1.1   963.8    0.00 
 205   22:50   0.00   77.1    42    0.2   246     1.5   963.8    0.00 
 205   23:00   0.00   77.1    44    0.2   360     0.9   964.1    0.00 
 205   23:10   0.00   77.1    43    0.2    55     1.0   964.1    0.00 
 205   23:20   0.00   76.9    44    0.4   163     1.4   964.1    0.00 
 205   23:30   0.00   76.7    44    0.6   338     1.7   964.1    0.00 
 205   23:40   0.00   76.3    44    0.5   325     1.4   964.1    0.00 
 205   23:50   0.00   75.8    44    1.2   261     2.5   964.1    0.00 
 206    0:00   0.00   75.6    45    1.9   263     3.4   964.1    0.00 
 206    0:10   0.00   74.5    46    1.6   265     3.1   964.4    0.00 
 206    0:20   0.00   74.3    47    1.1   273     2.6   964.4    0.00 
 206    0:30   0.00   73.7    47    0.2   265     1.4   964.4    0.00 
 206    0:40   0.00   73.3    48    0.4   236     1.3   964.4    0.00 
 206    0:50   0.00   73.2    48    1.2    77     5.2   964.4    0.00 
 206    1:00   0.00   72.7    49    2.4   276     4.0   964.4    0.00 
 206    1:10   0.00   71.1    52    2.9   254     5.3   964.4    0.00 
 206    1:20   0.00   70.4    52    2.7   254     5.8   964.4    0.00 
 206    1:30   0.00   69.6    54    1.2    64     3.8   964.8    0.00 
 206    1:40   0.00   69.3    57    2.9    88     5.7   964.8    0.00 
 206    1:50   0.00   68.5    59    2.1   319     5.6   964.8    0.00 
 206    2:00   0.00   67.9    61    1.4   306     4.2   964.8    0.00 
 206    2:10   0.00   67.7    63    1.9   281     3.8   964.8    0.00 
 206    2:20   0.00   67.0    66    2.4    79     6.5   965.1    0.00 
 206    2:30   0.00   66.7    65    1.9   151     4.7   965.1    0.00 
 206    2:40   0.00   66.4    64    2.1   146     3.9   965.1    0.00 
 206    2:50   0.00   66.4    65    0.6   159     2.4   965.1    0.00 
 206    3:00   0.00   66.2    66    0.1   202     1.0   965.1    0.00 
 206    3:10   0.00   66.1    66    0.2   160     1.0   965.1    0.00 
 206    3:20   0.00   65.6    67    1.6   298     2.7   965.5    0.00 
 206    3:30   0.00   65.0    68    2.5   256     3.9   965.5    0.00 
 206    3:40   0.00   65.1    68    2.7   218     5.0   965.5    0.00 
 206    3:50   0.00   64.6    68    1.6   125     3.4   965.5    0.00 
 206    4:00   0.00   65.1    67    1.3   200     3.4   965.5    0.00 
 206    4:10   0.00   65.5    66    2.2   255     3.7   965.5    0.00 
 206    4:20   0.00   65.0    67    1.5   267     3.1   965.5    0.00 
 206    4:30   0.00   64.2    69    1.1   243     2.3   965.5    0.00 
 206    4:40   0.00   64.7    68    1.4   220     2.4   965.5    0.00 
 206    4:50   0.00   64.6    68    0.9   331     2.6   965.5    0.00 
 206    5:00   0.00   64.1    70    1.1   302     2.9   965.5    0.00 
 206    5:10   0.01   64.2    70    0.8   304     3.3   965.5    0.00 
 206    5:20   0.01   64.2    71    1.2   247     3.3   965.8    0.00 
 206    5:30   0.01   64.3    71    0.5   328     1.9   965.8    0.00 
 206    5:40   0.02   64.1    72    0.9   292     1.5   965.8    0.00 
 206    5:50   0.03   64.0    72    0.0     0     0.0   965.8    0.00 
 206    6:00   0.06   64.3    72    1.3   128     1.9   965.8    0.00 
 206    6:10   0.13   67.1    66    1.2   118     2.0   966.1    0.00 
 206    6:20   0.16   69.3    62    1.1    60     2.9   966.1    0.00 
 206    6:30   0.20   70.0    60    1.7    89     2.9   966.1    0.00 
 206    6:40   0.23   71.1    58    1.0    91     2.6   966.1    0.00 
 206    6:50   0.27   73.5    54    0.8   317     2.3   966.1    0.00 
 206    7:00   0.30   73.7    54    1.1   331     2.7   966.1    0.00 
 206    7:10   0.34   74.8    53    2.0   298     4.2   966.1    0.00 
 206    7:20   0.37   76.3    51    2.7   288     4.2   966.1    0.00 
 206    7:30   0.41   76.8    51    1.8   303     4.3   966.1    0.00 
 206    7:40   0.44   77.3    51    2.1   292     5.2   966.1    0.00 
 206    7:50   0.47   78.6    50    2.7   318     5.6   966.1    0.00 
 206    8:00   0.51   80.2    48    3.2   354     6.9   966.1    0.00 
 206    8:10   0.54   79.8    48    1.8   313     3.9   966.1    0.00 
 206    8:20   0.57   80.6    47    2.3   314     6.4   965.8    0.00 
 206    8:30   0.60   83.0    45    4.3   331     8.8   966.1    0.00 
 206    8:40   0.63   82.6    46    3.2   308     5.6   966.1    0.00 
 206    8:50   0.66   84.4    44    3.1   306     7.2   966.1    0.00 
 206    9:00   0.69   84.7    45    3.7   304     6.8   966.1    0.00 
 206    9:10   0.71   84.5    44    4.1   322     8.6   966.5    0.00 
 206    9:20   0.74   86.1    42    3.6   328    10.7   966.5    0.00 
 206    9:30   0.77   87.5    38    3.7     3     8.8   966.5    0.00 
 206    9:40   0.79   87.6    40    3.5   348     8.9   966.5    0.00 
 206    9:50   0.81   88.5    37    3.8   354     8.7   966.8    0.00 
 206   10:00   0.83   88.0    41    3.2   309     7.2   966.8    0.00 
 206   10:10   0.85   89.4    40    3.7   298     8.0   966.8    0.00 
 206   10:20   0.87   89.3    40    4.1   296     7.2   966.8    0.00 
 206   10:30   0.89   89.7    39    4.0   316     8.0   966.8    0.00 
 206   10:40   0.90   90.0    39    4.2   308     9.3   966.8    0.00 
 206   10:50   0.92   90.8    38    3.0   312     8.7   966.8    0.00 
 206   11:00   0.93   90.0    34    3.0   342     7.9   967.2    0.00 

Return to Stunt Ranch Reserve graphs page.


Western Regional Climate Center,wrcc@dri.edu